Decoded Metar for KBWG (BOWLING GREE in KY, USA) (IATA:BWG) | Meteo·Mobile Aviation Weather
aviador You're here:

KBWG Decoded Metar

BOWLING GREE in KY, USA
Report Time2019-01-20 10:53:00
UTC Time2019-01-20 11:47:30
Flight Rules vfr VFR
Wind340° at 08 Gusting to 25 kt
W.Decomp.*RWY 30: 5.9 kt HW 5.4 kt RCW
RWY 03: 5.4 kt HW 5.9 kt LCW
W.Rank340° ranks 20
Current wind is above 340° avg. (5.3)
Visibility9999 m
Phenomena:N/A
Clouds:Few 024 Hf
Expected CloudBase > 2,000 ft AGL from Temp-Dew spread
CeilingNone
Temp-5°C (ISA -19)
Dew Point-10°C (68% RH)
AAT-10.9°C
QNH1019 hPa
Density Alt-1,946 ft
Elevation551 ft
Report Wrong Elevation
Raw Report
METAR KBWG 201053Z AUTO 34008G25KT 10SM FEW024 M05/M10 A3009 RMK AO2
SLP192 T10501100 $=

Extra information for KBWG:More info

Metar Taf Metar & Taf Last 4 Metars F.Rules Stats Wind Profile Meteogram Temp Stats Airport Information Weather charts Add Link Nearby VenuesMetar ALERT Operation Metar Decoded Social comments

AIRNAV info for KBWG